Time,TemperatureF,DewpointF,PressureIn,WindDirection,WindDirectionDegrees,WindSpeedMPH,WindSpeedGustMPH,Humidity,HourlyPrecipIn,Conditions,Clouds,dailyrainin,SoftwareType,DateUTC
2013-10-05 00:00:00,31.8,28.9,30.27,ESE,122,0.0,0.0,89,0.00,,,0.00,VWS V14.01,2013-10-05 06:00:00,
2013-10-05 00:05:00,29.6,26.8,30.26,SSE,151,0.0,2.0,89,0.00,,,0.00,VWS V14.01,2013-10-05 06:05:00,
2013-10-05 00:10:00,29.2,26.1,30.26,SE,135,3.0,3.0,88,0.00,,,0.00,VWS V14.01,2013-10-05 06:10:00,
2013-10-05 00:15:00,28.8,26.0,30.26,SE,133,2.0,2.0,89,0.00,,,0.00,VWS V14.01,2013-10-05 06:15:00,
2013-10-05 00:20:00,29.3,27.0,30.26,SE,124,1.0,3.0,91,0.00,,,0.00,VWS V14.01,2013-10-05 06:20:00,
2013-10-05 00:25:00,29.5,26.9,30.27,SE,138,0.0,1.0,90,0.00,,,0.00,VWS V14.01,2013-10-05 06:25:00,
2013-10-05 00:30:00,29.4,27.1,30.26,SE,138,0.0,1.0,91,0.00,,,0.00,VWS V14.01,2013-10-05 06:30:00,
2013-10-05 00:35:00,29.4,27.1,30.26,SE,138,0.0,0.0,91,0.00,,,0.00,VWS V14.01,2013-10-05 06:35:00,
2013-10-05 00:40:00,29.0,26.4,30.26,East,101,1.0,1.0,90,0.00,,,0.00,VWS V14.01,2013-10-05 06:40:00,
2013-10-05 00:45:00,29.0,26.7,30.27,ESE,104,1.0,1.0,91,0.00,,,0.00,VWS V14.01,2013-10-05 06:45:00,
2013-10-05 00:50:00,28.9,26.6,30.27,SE,144,0.0,1.0,91,0.00,,,0.00,VWS V14.01,2013-10-05 06:50:00,
2013-10-05 00:55:00,28.7,26.4,30.28,SE,143,0.0,1.0,91,0.00,,,0.00,VWS V14.01,2013-10-05 06:55:00,
2013-10-05 01:00:00,28.7,26.7,30.27,SE,144,0.0,0.0,92,0.00,,,0.00,VWS V14.01,2013-10-05 07:00:00,
2013-10-05 01:05:00,28.5,26.2,30.27,SE,131,0.0,0.0,91,0.00,,,0.00,VWS V14.01,2013-10-05 07:05:00,
2013-10-05 01:10:00,28.3,26.0,30.27,SE,131,0.0,0.0,91,0.00,,,0.00,VWS V14.01,2013-10-05 07:10:00,
2013-10-05 01:15:00,28.2,25.9,30.28,SSE,160,0.0,0.0,91,0.00,,,0.00,VWS V14.01,2013-10-05 07:15:00,
2013-10-05 01:20:00,27.9,25.6,30.28,ESE,118,0.0,0.0,91,0.00,,,0.00,VWS V14.01,2013-10-05 07:20:00,
2013-10-05 01:25:00,27.8,25.5,30.27,East,96,0.0,0.0,91,0.00,,,0.00,VWS V14.01,2013-10-05 07:25:00,
2013-10-05 01:30:00,27.9,25.6,30.27,East,96,0.0,1.0,91,0.00,,,0.00,VWS V14.01,2013-10-05 07:30:00,
2013-10-05 01:35:00,27.9,25.4,30.27,East,87,0.0,0.0,90,0.00,,,0.00,VWS V14.01,2013-10-05 07:35:00,
2013-10-05 01:40:00,27.8,25.2,30.27,East,87,0.0,1.0,90,0.00,,,0.00,VWS V14.01,2013-10-05 07:40:00,
2013-10-05 01:45:00,27.8,25.2,30.27,SE,143,0.0,2.0,90,0.00,,,0.00,VWS V14.01,2013-10-05 07:45:00,
2013-10-05 01:50:00,27.8,25.2,30.27,SE,143,0.0,1.0,90,0.00,,,0.00,VWS V14.01,2013-10-05 07:50:00,
2013-10-05 01:55:00,27.8,25.2,30.27,ESE,123,0.0,1.0,90,0.00,,,0.00,VWS V14.01,2013-10-05 07:55:00,
2013-10-05 02:00:00,27.8,25.2,30.27,ESE,123,0.0,0.0,90,0.00,,,0.00,VWS V14.01,2013-10-05 08:00:00,
2013-10-05 02:05:00,27.6,25.1,30.27,ESE,123,0.0,1.0,90,0.00,,,0.00,VWS V14.01,2013-10-05 08:05:00,
2013-10-05 02:10:00,27.6,25.1,30.27,ESE,122,0.0,1.0,90,0.00,,,0.00,VWS V14.01,2013-10-05 08:10:00,
2013-10-05 02:15:00,27.9,25.6,30.27,ESE,122,0.0,1.0,91,0.00,,,0.00,VWS V14.01,2013-10-05 08:15:00,
2013-10-05 02:20:00,27.8,25.2,30.27,ESE,122,0.0,0.0,90,0.00,,,0.00,VWS V14.01,2013-10-05 08:20:00,
2013-10-05 02:24:00,28.2,26.2,30.27,ESE,122,0.0,0.0,92,0.00,,,0.00,VWS V14.01,2013-10-05 08:24:00,
2013-10-05 02:25:00,27.8,25.5,30.27,East,96,0.0,2.0,91,0.00,,,0.00,VWS V14.01,2013-10-05 08:25:00,
2013-10-05 02:29:00,27.8,25.2,30.27,ESE,114,1.0,2.0,90,0.00,,,0.00,VWS V14.01,2013-10-05 08:29:00,
2013-10-05 02:30:00,27.9,25.6,30.27,East,96,0.0,1.0,91,0.00,,,0.00,VWS V14.01,2013-10-05 08:30:00,
2013-10-05 02:34:00,27.4,24.9,30.28,ESE,109,1.0,2.0,90,0.00,,,0.00,VWS V14.01,2013-10-05 08:34:00,
2013-10-05 02:35:00,27.9,25.4,30.27,East,87,0.0,2.0,90,0.00,,,0.00,VWS V14.01,2013-10-05 08:35:00,
2013-10-05 02:39:00,27.3,24.8,30.27,SE,125,1.0,2.0,90,0.00,,,0.00,VWS V14.01,2013-10-05 08:39:00,
2013-10-05 02:40:00,27.8,25.2,30.27,East,87,0.0,1.0,90,0.00,,,0.00,VWS V14.01,2013-10-05 08:40:00,
2013-10-05 02:44:00,27.1,24.6,30.27,SSE,150,0.0,2.0,90,0.00,,,0.00,VWS V14.01,2013-10-05 08:44:00,
2013-10-05 02:45:00,27.8,25.2,30.27,SE,143,0.0,2.0,90,0.00,,,0.00,VWS V14.01,2013-10-05 08:45:00,
2013-10-05 02:49:00,27.1,24.6,30.27,SE,124,0.0,1.0,90,0.00,,,0.00,VWS V14.01,2013-10-05 08:49:00,
2013-10-05 02:50:00,27.8,25.2,30.27,SE,143,0.0,1.0,90,0.00,,,0.00,VWS V14.01,2013-10-05 08:50:00,
2013-10-05 02:54:00,26.9,24.4,30.28,SE,134,0.0,1.0,90,0.00,,,0.00,VWS V14.01,2013-10-05 08:54:00,
2013-10-05 02:55:00,27.8,25.2,30.27,ESE,123,0.0,1.0,90,0.00,,,0.00,VWS V14.01,2013-10-05 08:55:00,
2013-10-05 02:59:00,26.7,24.2,30.28,SSE,155,0.0,1.0,90,0.00,,,0.00,VWS V14.01,2013-10-05 08:59:00,
2013-10-05 03:00:00,27.8,25.2,30.27,ESE,123,0.0,0.0,90,0.00,,,0.00,VWS V14.01,2013-10-05 09:00:00,
2013-10-05 03:04:00,26.7,24.2,30.28,SW,236,1.0,1.0,90,0.00,,,0.00,VWS V14.01,2013-10-05 09:04:00,
2013-10-05 03:05:00,27.6,25.1,30.27,ESE,123,0.0,1.0,90,0.00,,,0.00,VWS V14.01,2013-10-05 09:05:00,
2013-10-05 03:09:00,27.4,25.4,30.28,SW,222,1.0,2.0,92,0.00,,,0.00,VWS V14.01,2013-10-05 09:09:00,
2013-10-05 03:10:00,27.6,25.1,30.27,ESE,122,0.0,1.0,90,0.00,,,0.00,VWS V14.01,2013-10-05 09:10:00,
2013-10-05 03:14:00,28.2,26.4,30.28,WSW,242,0.0,2.0,93,0.00,,,0.00,VWS V14.01,2013-10-05 09:14:00,
2013-10-05 03:15:00,27.9,25.6,30.27,ESE,122,0.0,1.0,91,0.00,,,0.00,VWS V14.01,2013-10-05 09:15:00,
2013-10-05 03:19:00,28.2,26.2,30.28,WSW,241,0.0,0.0,92,0.00,,,0.00,VWS V14.01,2013-10-05 09:19:00,
2013-10-05 03:20:00,27.8,25.2,30.27,ESE,122,0.0,0.0,90,0.00,,,0.00,VWS V14.01,2013-10-05 09:20:00,
2013-10-05 03:24:00,28.8,27.3,30.28,WSW,242,0.0,1.0,94,0.00,,,0.00,VWS V14.01,2013-10-05 09:24:00,
2013-10-05 03:25:00,28.2,26.2,30.27,ESE,122,0.0,0.0,92,0.00,,,0.00,VWS V14.01,2013-10-05 09:25:00,
2013-10-05 03:29:00,28.5,26.5,30.28,WSW,242,0.0,0.0,92,0.00,,,0.00,VWS V14.01,2013-10-05 09:29:00,
2013-10-05 03:30:00,27.8,25.2,30.27,ESE,114,1.0,2.0,90,0.00,,,0.00,VWS V14.01,2013-10-05 09:30:00,
2013-10-05 03:34:00,28.5,26.7,30.28,SSE,148,0.0,1.0,93,0.00,,,0.00,VWS V14.01,2013-10-05 09:34:00,
2013-10-05 03:35:00,27.4,24.9,30.28,ESE,109,1.0,2.0,90,0.00,,,0.00,VWS V14.01,2013-10-05 09:35:00,
2013-10-05 03:39:00,27.6,25.3,30.28,ESE,104,0.0,2.0,91,0.00,,,0.00,VWS V14.01,2013-10-05 09:39:00,
2013-10-05 03:40:00,27.3,24.8,30.27,SE,125,1.0,2.0,90,0.00,,,0.00,VWS V14.01,2013-10-05 09:40:00,
2013-10-05 03:44:00,27.2,24.9,30.28,ESE,111,0.0,1.0,91,0.00,,,0.00,VWS V14.01,2013-10-05 09:44:00,
2013-10-05 03:45:00,27.1,24.6,30.27,SSE,151,0.0,2.0,90,0.00,,,0.00,VWS V14.01,2013-10-05 09:45:00,
2013-10-05 03:49:00,26.7,24.4,30.28,SE,128,0.0,2.0,91,0.00,,,0.00,VWS V14.01,2013-10-05 09:49:00,
2013-10-05 03:50:00,27.1,24.6,30.27,SE,124,0.0,1.0,90,0.00,,,0.00,VWS V14.01,2013-10-05 09:50:00,
2013-10-05 03:54:00,27.0,25.0,30.28,ESE,102,0.0,2.0,92,0.00,,,0.00,VWS V14.01,2013-10-05 09:54:00,
2013-10-05 03:55:00,26.9,24.4,30.28,SE,132,1.0,1.0,90,0.00,,,0.00,VWS V14.01,2013-10-05 09:55:00,
2013-10-05 03:59:00,26.9,24.9,30.28,ESE,102,1.0,1.0,92,0.00,,,0.00,VWS V14.01,2013-10-05 09:59:00,
2013-10-05 04:00:00,26.7,24.2,30.28,SSE,155,0.0,1.0,90,0.00,,,0.00,VWS V14.01,2013-10-05 10:00:00,
2013-10-05 04:04:00,26.8,24.8,30.28,ESE,111,0.0,1.0,92,0.00,,,0.00,VWS V14.01,2013-10-05 10:04:00,
2013-10-05 04:05:00,26.7,24.2,30.28,SW,236,1.0,1.0,90,0.00,,,0.00,VWS V14.01,2013-10-05 10:05:00,
2013-10-05 04:09:00,26.8,24.8,30.28,ESE,111,0.0,1.0,92,0.00,,,0.00,VWS V14.01,2013-10-05 10:09:00,
2013-10-05 04:10:00,27.4,25.4,30.28,SW,226,1.0,2.0,92,0.00,,,0.00,VWS V14.01,2013-10-05 10:10:00,
2013-10-05 04:14:00,27.1,25.1,30.28,ESE,111,0.0,1.0,92,0.00,,,0.00,VWS V14.01,2013-10-05 10:14:00,
2013-10-05 04:15:00,28.2,26.4,30.28,WSW,242,0.0,2.0,93,0.00,,,0.00,VWS V14.01,2013-10-05 10:15:00,
2013-10-05 04:19:00,27.3,25.3,30.28,ESE,111,0.0,0.0,92,0.00,,,0.00,VWS V14.01,2013-10-05 10:19:00,
2013-10-05 04:20:00,28.2,26.2,30.28,WSW,242,0.0,0.0,92,0.00,,,0.00,VWS V14.01,2013-10-05 10:20:00,
2013-10-05 04:24:00,27.2,25.2,30.27,ESE,112,0.0,1.0,92,0.00,,,0.00,VWS V14.01,2013-10-05 10:24:00,
2013-10-05 04:25:00,28.8,27.0,30.28,WSW,242,0.0,1.0,93,0.00,,,0.00,VWS V14.01,2013-10-05 10:25:00,
2013-10-05 04:29:00,27.2,25.2,30.27,ESE,112,0.0,0.0,92,0.00,,,0.00,VWS V14.01,2013-10-05 10:29:00,
2013-10-05 04:30:00,28.4,26.4,30.28,WSW,242,0.0,0.0,92,0.00,,,0.00,VWS V14.01,2013-10-05 10:30:00,
2013-10-05 04:34:00,27.1,24.8,30.27,ESE,111,0.0,0.0,91,0.00,,,0.00,VWS V14.01,2013-10-05 10:34:00,
2013-10-05 04:35:00,28.5,26.7,30.28,SSE,148,0.0,1.0,93,0.00,,,0.00,VWS V14.01,2013-10-05 10:35:00,
2013-10-05 04:39:00,26.5,24.2,30.27,East,101,1.0,1.0,91,0.00,,,0.00,VWS V14.01,2013-10-05 10:39:00,
2013-10-05 04:40:00,27.6,25.3,30.28,ESE,105,0.0,2.0,91,0.00,,,0.00,VWS V14.01,2013-10-05 10:40:00,
2013-10-05 04:44:00,26.7,24.7,30.27,East,99,0.0,1.0,92,0.00,,,0.00,VWS V14.01,2013-10-05 10:44:00,
2013-10-05 04:45:00,27.2,24.9,30.28,ESE,111,1.0,1.0,91,0.00,,,0.00,VWS V14.01,2013-10-05 10:45:00,
2013-10-05 04:49:00,26.7,24.7,30.27,East,98,0.0,0.0,92,0.00,,,0.00,VWS V14.01,2013-10-05 10:49:00,
2013-10-05 04:50:00,26.7,24.4,30.28,SE,129,0.0,2.0,91,0.00,,,0.00,VWS V14.01,2013-10-05 10:50:00,
2013-10-05 04:54:00,26.6,24.6,30.27,East,98,0.0,0.0,92,0.00,,,0.00,VWS V14.01,2013-10-05 10:54:00,
2013-10-05 04:55:00,27.0,25.0,30.28,ESE,102,0.0,2.0,92,0.00,,,0.00,VWS V14.01,2013-10-05 10:55:00,
2013-10-05 04:59:00,26.6,24.6,30.27,ESE,114,0.0,1.0,92,0.00,,,0.00,VWS V14.01,2013-10-05 10:59:00,
2013-10-05 05:00:00,26.9,24.9,30.28,East,101,1.0,1.0,92,0.00,,,0.00,VWS V14.01,2013-10-05 11:00:00,
2013-10-05 05:04:00,26.9,25.1,30.28,SE,139,0.0,1.0,93,0.00,,,0.00,VWS V14.01,2013-10-05 11:04:00,
2013-10-05 05:05:00,26.8,24.8,30.28,ESE,111,0.0,1.0,92,0.00,,,0.00,VWS V14.01,2013-10-05 11:05:00,
2013-10-05 05:09:00,27.1,25.4,30.28,SE,139,0.0,0.0,93,0.00,,,0.00,VWS V14.01,2013-10-05 11:09:00,
2013-10-05 05:10:00,26.8,24.8,30.28,ESE,111,0.0,1.0,92,0.00,,,0.00,VWS V14.01,2013-10-05 11:10:00,
2013-10-05 05:14:00,27.2,25.5,30.28,SE,139,0.0,0.0,93,0.00,,,0.00,VWS V14.01,2013-10-05 11:14:00,
2013-10-05 05:15:00,27.1,25.1,30.28,ESE,111,0.0,1.0,92,0.00,,,0.00,VWS V14.01,2013-10-05 11:15:00,
2013-10-05 05:19:00,27.1,25.1,30.28,SE,139,1.0,1.0,92,0.00,,,0.00,VWS V14.01,2013-10-05 11:19:00,
2013-10-05 05:20:00,27.3,25.3,30.28,ESE,112,0.0,0.0,92,0.00,,,0.00,VWS V14.01,2013-10-05 11:20:00,
2013-10-05 05:24:00,27.5,25.8,30.29,SE,142,0.0,1.0,93,0.00,,,0.00,VWS V14.01,2013-10-05 11:24:00,
2013-10-05 05:25:00,27.1,24.8,30.27,ESE,112,0.0,1.0,91,0.00,,,0.00,VWS V14.01,2013-10-05 11:25:00,
2013-10-05 05:29:00,28.0,26.2,30.28,SE,142,0.0,0.0,93,0.00,,,0.00,VWS V14.01,2013-10-05 11:29:00,
2013-10-05 05:30:00,27.2,25.2,30.27,ESE,112,0.0,0.0,92,0.00,,,0.00,VWS V14.01,2013-10-05 11:30:00,
2013-10-05 05:34:00,28.1,26.3,30.28,SE,142,0.0,0.0,93,0.00,,,0.00,VWS V14.01,2013-10-05 11:34:00,
2013-10-05 05:35:00,27.0,24.7,30.27,ESE,111,0.0,0.0,91,0.00,,,0.00,VWS V14.01,2013-10-05 11:35:00,
2013-10-05 05:39:00,28.1,26.1,30.28,SE,142,0.0,1.0,92,0.00,,,0.00,VWS V14.01,2013-10-05 11:39:00,
2013-10-05 05:40:00,26.5,24.2,30.27,East,99,1.0,1.0,91,0.00,,,0.00,VWS V14.01,2013-10-05 11:40:00,
2013-10-05 05:44:00,28.0,26.0,30.28,SE,141,0.0,0.0,92,0.00,,,0.00,VWS V14.01,2013-10-05 11:44:00,
2013-10-05 05:45:00,26.7,24.7,30.27,East,99,0.0,1.0,92,0.00,,,0.00,VWS V14.01,2013-10-05 11:45:00,
2013-10-05 05:49:00,27.8,25.8,30.28,SE,137,0.0,0.0,92,0.00,,,0.00,VWS V14.01,2013-10-05 11:49:00,
2013-10-05 05:50:00,26.7,24.7,30.27,East,98,0.0,0.0,92,0.00,,,0.00,VWS V14.01,2013-10-05 11:50:00,
2013-10-05 05:54:00,27.7,25.7,30.28,ESE,121,0.0,1.0,92,0.00,,,0.00,VWS V14.01,2013-10-05 11:54:00,
2013-10-05 05:55:00,26.5,24.5,30.27,East,99,0.0,0.0,92,0.00,,,0.00,VWS V14.01,2013-10-05 11:55:00,
2013-10-05 05:59:00,27.6,25.6,30.28,ESE,122,0.0,1.0,92,0.00,,,0.00,VWS V14.01,2013-10-05 11:59:00,
2013-10-05 06:00:00,26.7,24.7,30.27,ESE,114,0.0,1.0,92,0.00,,,0.00,VWS V14.01,2013-10-05 12:00:00,
2013-10-05 06:04:00,27.5,25.5,30.28,ESE,121,0.0,0.0,92,0.00,,,0.00,VWS V14.01,2013-10-05 12:04:00,
2013-10-05 06:05:00,26.9,25.1,30.28,SE,139,0.0,1.0,93,0.00,,,0.00,VWS V14.01,2013-10-05 12:05:00,
2013-10-05 06:09:00,27.4,25.4,30.29,WSW,238,0.0,0.0,92,0.00,,,0.00,VWS V14.01,2013-10-05 12:09:00,
2013-10-05 06:10:00,27.1,25.4,30.28,SE,139,0.0,0.0,93,0.00,,,0.00,VWS V14.01,2013-10-05 12:10:00,
2013-10-05 06:14:00,27.5,25.5,30.28,WSW,239,0.0,0.0,92,0.00,,,0.00,VWS V14.01,2013-10-05 12:14:00,
2013-10-05 06:15:00,27.2,25.5,30.28,SE,139,0.0,0.0,93,0.00,,,0.00,VWS V14.01,2013-10-05 12:15:00,
2013-10-05 06:19:00,27.7,25.9,30.29,WSW,239,0.0,0.0,93,0.00,,,0.00,VWS V14.01,2013-10-05 12:19:00,
2013-10-05 06:20:00,27.1,25.1,30.28,SE,139,0.0,1.0,92,0.00,,,0.00,VWS V14.01,2013-10-05 12:20:00,
2013-10-05 06:24:00,28.0,26.2,30.28,WSW,239,0.0,0.0,93,0.00,,,0.00,VWS V14.01,2013-10-05 12:24:00,
2013-10-05 06:25:00,27.6,25.8,30.29,SE,142,0.0,1.0,93,0.00,,,0.00,VWS V14.01,2013-10-05 12:25:00,
2013-10-05 06:29:00,28.1,26.3,30.28,WSW,239,0.0,0.0,93,0.00,,,0.00,VWS V14.01,2013-10-05 12:29:00,
2013-10-05 06:30:00,28.0,26.2,30.28,SE,142,0.0,0.0,93,0.00,,,0.00,VWS V14.01,2013-10-05 12:30:00,
2013-10-05 06:34:00,28.5,26.7,30.28,WSW,239,0.0,0.0,93,0.00,,,0.00,VWS V14.01,2013-10-05 12:34:00,
2013-10-05 06:35:00,28.1,26.3,30.28,SE,142,0.0,0.0,93,0.00,,,0.00,VWS V14.01,2013-10-05 12:35:00,
2013-10-05 06:39:00,28.6,26.8,30.28,WSW,238,0.0,0.0,93,0.00,,,0.00,VWS V14.01,2013-10-05 12:39:00,
2013-10-05 06:40:00,28.1,26.1,30.28,SE,142,0.0,1.0,92,0.00,,,0.00,VWS V14.01,2013-10-05 12:40:00,
2013-10-05 06:44:00,28.8,27.0,30.27,ENE,75,2.0,2.0,93,0.00,,,0.00,VWS V14.01,2013-10-05 12:44:00,
2013-10-05 06:45:00,27.9,25.9,30.28,SE,141,0.0,0.0,92,0.00,,,0.00,VWS V14.01,2013-10-05 12:45:00,
2013-10-05 06:49:00,28.6,26.8,30.27,ESE,103,1.0,2.0,93,0.00,,,0.00,VWS V14.01,2013-10-05 12:49:00,
2013-10-05 06:50:00,27.8,25.8,30.28,ESE,121,1.0,1.0,92,0.00,,,0.00,VWS V14.01,2013-10-05 12:50:00,
2013-10-05 06:54:00,28.7,26.9,30.27,ESE,109,0.0,1.0,93,0.00,,,0.00,VWS V14.01,2013-10-05 12:54:00,
2013-10-05 06:55:00,27.7,25.7,30.28,ESE,122,0.0,1.0,92,0.00,,,0.00,VWS V14.01,2013-10-05 12:55:00,
2013-10-05 06:59:00,28.8,26.8,30.27,ESE,109,0.0,0.0,92,0.00,,,0.00,VWS V14.01,2013-10-05 12:59:00,
2013-10-05 07:00:00,27.6,25.6,30.28,ESE,121,0.0,1.0,92,0.00,,,0.00,VWS V14.01,2013-10-05 13:00:00,
2013-10-05 07:04:00,28.7,26.7,30.27,ESE,108,0.0,0.0,92,0.00,,,0.00,VWS V14.01,2013-10-05 13:04:00,
2013-10-05 07:05:00,27.5,25.5,30.28,ESE,122,0.0,0.0,92,0.00,,,0.00,VWS V14.01,2013-10-05 13:05:00,
2013-10-05 07:09:00,28.6,26.6,30.27,ESE,109,0.0,0.0,92,0.00,,,0.00,VWS V14.01,2013-10-05 13:09:00,
2013-10-05 07:10:00,27.4,25.4,30.29,WSW,238,0.0,0.0,92,0.00,,,0.00,VWS V14.01,2013-10-05 13:10:00,
2013-10-05 07:14:00,28.6,26.6,30.27,ESE,108,0.0,0.0,92,0.00,,,0.00,VWS V14.01,2013-10-05 13:14:00,
2013-10-05 07:15:00,27.5,25.5,30.28,WSW,238,0.0,0.0,92,0.00,,,0.00,VWS V14.01,2013-10-05 13:15:00,
2013-10-05 07:19:00,28.4,26.4,30.27,ESE,109,0.0,0.0,92,0.00,,,0.00,VWS V14.01,2013-10-05 13:19:00,
2013-10-05 07:20:00,27.7,25.9,30.29,WSW,239,0.0,0.0,93,0.00,,,0.00,VWS V14.01,2013-10-05 13:20:00,
2013-10-05 07:24:00,28.3,26.3,30.27,ESE,109,0.0,0.0,92,0.00,,,0.00,VWS V14.01,2013-10-05 13:24:00,
2013-10-05 07:25:00,28.0,26.2,30.28,WSW,239,0.0,0.0,93,0.00,,,0.00,VWS V14.01,2013-10-05 13:25:00,
2013-10-05 07:29:00,28.3,26.3,30.27,ESE,108,0.0,0.0,92,0.00,,,0.00,VWS V14.01,2013-10-05 13:29:00,
2013-10-05 07:30:00,28.1,26.3,30.28,WSW,239,0.0,0.0,93,0.00,,,0.00,VWS V14.01,2013-10-05 13:30:00,
2013-10-05 07:34:00,28.2,26.2,30.27,ESE,108,0.0,0.0,92,0.00,,,0.00,VWS V14.01,2013-10-05 13:34:00,
2013-10-05 07:35:00,28.5,26.7,30.28,WSW,239,0.0,0.0,93,0.00,,,0.00,VWS V14.01,2013-10-05 13:35:00,
2013-10-05 07:39:00,28.5,26.5,30.27,ESE,108,0.0,1.0,92,0.00,,,0.00,VWS V14.01,2013-10-05 13:39:00,
2013-10-05 07:40:00,28.6,26.8,30.28,WSW,239,0.0,0.0,93,0.00,,,0.00,VWS V14.01,2013-10-05 13:40:00,
2013-10-05 07:44:00,28.5,26.5,30.27,ESE,108,0.0,0.0,92,0.00,,,0.00,VWS V14.01,2013-10-05 13:44:00,
2013-10-05 07:45:00,28.8,27.0,30.27,East,82,2.0,2.0,93,0.00,,,0.00,VWS V14.01,2013-10-05 13:45:00,
2013-10-05 07:49:00,28.3,26.3,30.27,SE,143,0.0,2.0,92,0.00,,,0.00,VWS V14.01,2013-10-05 13:49:00,
2013-10-05 07:50:00,28.6,26.8,30.27,ESE,103,0.0,2.0,93,0.00,,,0.00,VWS V14.01,2013-10-05 13:50:00,
2013-10-05 07:54:00,28.5,26.5,30.27,SE,143,0.0,0.0,92,0.00,,,0.00,VWS V14.01,2013-10-05 13:54:00,
2013-10-05 07:55:00,28.8,27.0,30.27,ESE,108,0.0,1.0,93,0.00,,,0.00,VWS V14.01,2013-10-05 13:55:00,
2013-10-05 07:59:00,28.5,26.5,30.27,SE,144,0.0,0.0,92,0.00,,,0.00,VWS V14.01,2013-10-05 13:59:00,
2013-10-05 08:00:00,28.8,26.8,30.27,ESE,108,0.0,0.0,92,0.00,,,0.00,VWS V14.01,2013-10-05 14:00:00,
2013-10-05 08:04:00,28.5,26.5,30.28,SE,143,1.0,1.0,92,0.00,,,0.00,VWS V14.01,2013-10-05 14:04:00,
2013-10-05 08:05:00,28.7,26.7,30.27,ESE,109,0.0,0.0,92,0.00,,,0.00,VWS V14.01,2013-10-05 14:05:00,
2013-10-05 08:09:00,28.6,26.6,30.28,South,174,1.0,1.0,92,0.00,,,0.00,VWS V14.01,2013-10-05 14:09:00,
2013-10-05 08:10:00,28.6,26.6,30.27,ESE,109,0.0,0.0,92,0.00,,,0.00,VWS V14.01,2013-10-05 14:10:00,
2013-10-05 08:14:00,29.2,27.4,30.28,SSW,195,1.0,3.0,93,0.00,,,0.00,VWS V14.01,2013-10-05 14:14:00,
2013-10-05 08:15:00,28.6,26.6,30.27,ESE,109,0.0,0.0,92,0.00,,,0.00,VWS V14.01,2013-10-05 14:15:00,
2013-10-05 08:19:00,29.8,28.3,30.28,SSW,195,0.0,3.0,94,0.00,,,0.00,VWS V14.01,2013-10-05 14:19:00,
2013-10-05 08:20:00,28.4,26.4,30.27,ESE,108,0.0,0.0,92,0.00,,,0.00,VWS V14.01,2013-10-05 14:20:00,
2013-10-05 08:24:00,30.3,28.5,30.28,SW,217,1.0,2.0,93,0.00,,,0.00,VWS V14.01,2013-10-05 14:24:00,
2013-10-05 08:25:00,28.3,26.3,30.27,ESE,108,0.0,0.0,92,0.00,,,0.00,VWS V14.01,2013-10-05 14:25:00,
2013-10-05 08:29:00,30.6,28.8,30.28,SW,217,0.0,1.0,93,0.00,,,0.00,VWS V14.01,2013-10-05 14:29:00,
2013-10-05 08:30:00,28.3,26.3,30.27,ESE,109,0.0,0.0,92,0.00,,,0.00,VWS V14.01,2013-10-05 14:30:00,
2013-10-05 08:34:00,30.9,29.1,30.28,SW,217,0.0,0.0,93,0.00,,,0.00,VWS V14.01,2013-10-05 14:34:00,
2013-10-05 08:35:00,28.2,26.2,30.27,ESE,109,1.0,1.0,92,0.00,,,0.00,VWS V14.01,2013-10-05 14:35:00,
2013-10-05 08:39:00,31.0,29.0,30.28,SW,217,0.0,0.0,92,0.00,,,0.00,VWS V14.01,2013-10-05 14:39:00,
2013-10-05 08:40:00,28.5,26.5,30.27,ESE,109,0.0,1.0,92,0.00,,,0.00,VWS V14.01,2013-10-05 14:40:00,
2013-10-05 08:44:00,31.2,29.1,30.28,SW,217,0.0,1.0,92,0.00,,,0.00,VWS V14.01,2013-10-05 14:44:00,
2013-10-05 08:45:00,28.6,26.6,30.27,SE,127,1.0,1.0,92,0.00,,,0.00,VWS V14.01,2013-10-05 14:45:00,
2013-10-05 08:49:00,31.4,29.4,30.28,South,170,0.0,0.0,92,0.00,,,0.00,VWS V14.01,2013-10-05 14:49:00,
2013-10-05 08:50:00,28.3,26.3,30.27,SE,143,0.0,2.0,92,0.00,,,0.00,VWS V14.01,2013-10-05 14:50:00,
2013-10-05 08:54:00,31.6,29.5,30.28,South,170,0.0,0.0,92,0.00,,,0.00,VWS V14.01,2013-10-05 14:54:00,
2013-10-05 08:55:00,28.5,26.5,30.27,SE,143,0.0,0.0,92,0.00,,,0.00,VWS V14.01,2013-10-05 14:55:00,
2013-10-05 08:59:00,32.0,30.2,30.29,SSW,203,1.0,2.0,93,0.00,,,0.00,VWS V14.01,2013-10-05 14:59:00,
2013-10-05 09:00:00,28.5,26.5,30.27,SE,143,0.0,0.0,92,0.00,,,0.00,VWS V14.01,2013-10-05 15:00:00,
2013-10-05 09:04:00,32.5,30.4,30.29,SSW,195,2.0,3.0,92,0.00,,,0.00,VWS V14.01,2013-10-05 15:04:00,
2013-10-05 09:05:00,28.5,26.5,30.28,SE,142,1.0,1.0,92,0.00,,,0.00,VWS V14.01,2013-10-05 15:05:00,
2013-10-05 09:09:00,32.9,30.6,30.29,South,181,3.0,4.0,91,0.00,,,0.00,VWS V14.01,2013-10-05 15:09:00,
2013-10-05 09:10:00,28.6,26.6,30.28,South,177,2.0,2.0,92,0.00,,,0.00,VWS V14.01,2013-10-05 15:10:00,
2013-10-05 09:14:00,33.5,31.2,30.29,SE,139,1.0,3.0,91,0.00,,,0.00,VWS V14.01,2013-10-05 15:14:00,
2013-10-05 09:15:00,29.3,27.5,30.28,SSW,200,1.0,3.0,93,0.00,,,0.00,VWS V14.01,2013-10-05 15:15:00,
2013-10-05 09:19:00,34.0,31.4,30.29,SE,145,0.0,4.0,90,0.00,,,0.00,VWS V14.01,2013-10-05 15:19:00,
2013-10-05 09:20:00,29.9,28.4,30.28,SSW,209,1.0,3.0,94,0.00,,,0.00,VWS V14.01,2013-10-05 15:20:00,
2013-10-05 09:24:00,34.8,31.9,30.29,SSE,158,1.0,2.0,89,0.00,,,0.00,VWS V14.01,2013-10-05 15:24:00,
2013-10-05 09:25:00,30.3,28.5,30.28,SW,219,1.0,2.0,93,0.00,,,0.00,VWS V14.01,2013-10-05 15:25:00,
2013-10-05 09:29:00,35.7,32.8,30.29,SE,139,1.0,3.0,89,0.00,,,0.00,VWS V14.01,2013-10-05 15:29:00,
2013-10-05 09:30:00,30.6,28.8,30.28,SW,217,0.0,1.0,93,0.00,,,0.00,VWS V14.01,2013-10-05 15:30:00,
2013-10-05 09:34:00,36.6,33.1,30.30,SSE,167,3.0,3.0,87,0.00,,,0.00,VWS V14.01,2013-10-05 15:34:00,
2013-10-05 09:35:00,30.9,29.1,30.28,SW,217,0.0,0.0,93,0.00,,,0.00,VWS V14.01,2013-10-05 15:35:00,
2013-10-05 09:39:00,36.8,32.7,30.30,South,184,1.0,4.0,85,0.00,,,0.00,VWS V14.01,2013-10-05 15:39:00,
2013-10-05 09:40:00,31.0,29.0,30.28,SW,217,0.0,0.0,92,0.00,,,0.00,VWS V14.01,2013-10-05 15:40:00,
2013-10-05 09:44:00,36.9,32.5,30.29,SSW,211,2.0,3.0,84,0.00,,,0.00,VWS V14.01,2013-10-05 15:44:00,
2013-10-05 09:45:00,31.3,29.2,30.28,SW,217,0.0,1.0,92,0.00,,,0.00,VWS V14.01,2013-10-05 15:45:00,
2013-10-05 09:49:00,36.6,32.5,30.30,WSW,252,2.0,4.0,85,0.00,,,0.00,VWS V14.01,2013-10-05 15:49:00,
2013-10-05 09:50:00,31.4,29.4,30.28,South,170,0.0,0.0,92,0.00,,,0.00,VWS V14.01,2013-10-05 15:50:00,
2013-10-05 09:54:00,36.2,32.1,30.30,West,269,3.0,5.0,85,0.00,,,0.00,VWS V14.01,2013-10-05 15:54:00,
2013-10-05 09:55:00,31.7,29.9,30.28,South,170,0.0,0.0,93,0.00,,,0.00,VWS V14.01,2013-10-05 15:55:00,
2013-10-05 09:59:00,36.1,32.0,30.30,SW,231,4.0,5.0,85,0.00,,,0.00,VWS V14.01,2013-10-05 15:59:00,
2013-10-05 10:00:00,32.1,30.3,30.29,SSW,211,1.0,2.0,93,0.00,,,0.00,VWS V14.01,2013-10-05 16:00:00,
2013-10-05 10:04:00,36.3,32.5,30.30,SW,236,2.0,4.0,86,0.00,,,0.00,VWS V14.01,2013-10-05 16:04:00,
2013-10-05 10:05:00,32.6,30.5,30.29,SSW,197,2.0,3.0,92,0.00,,,0.00,VWS V14.01,2013-10-05 16:05:00,
2013-10-05 10:09:00,36.6,32.8,30.29,WSW,246,2.0,3.0,86,0.00,,,0.00,VWS V14.01,2013-10-05 16:09:00,
2013-10-05 10:10:00,33.0,30.7,30.29,SSW,205,1.0,4.0,91,0.00,,,0.00,VWS V14.01,2013-10-05 16:10:00,
2013-10-05 10:14:00,37.6,34.1,30.29,SSE,153,0.0,2.0,87,0.00,,,0.00,VWS V14.01,2013-10-05 16:14:00,
2013-10-05 10:15:00,33.6,31.3,30.29,SSE,162,0.0,3.0,91,0.00,,,0.00,VWS V14.01,2013-10-05 16:15:00,
2013-10-05 10:19:00,39.3,35.2,30.29,SE,146,0.0,1.0,85,0.00,,,0.00,VWS V14.01,2013-10-05 16:19:00,
2013-10-05 10:20:00,34.2,31.6,30.29,SE,126,1.0,4.0,90,0.00,,,0.00,VWS V14.01,2013-10-05 16:20:00,
2013-10-05 10:24:00,40.1,34.8,30.29,SSW,212,0.0,2.0,81,0.00,,,0.00,VWS V14.01,2013-10-05 16:24:00,
2013-10-05 10:25:00,34.8,31.9,30.29,SE,140,2.0,2.0,89,0.00,,,0.00,VWS V14.01,2013-10-05 16:25:00,
2013-10-05 10:29:00,40.6,34.6,30.29,SSW,212,2.0,3.0,79,0.00,,,0.00,VWS V14.01,2013-10-05 16:29:00,
2013-10-05 10:30:00,35.8,32.6,30.29,SE,130,1.0,3.0,88,0.00,,,0.00,VWS V14.01,2013-10-05 16:30:00,
2013-10-05 10:34:00,40.7,34.4,30.30,South,176,0.0,3.0,78,0.00,,,0.00,VWS V14.01,2013-10-05 16:34:00,
2013-10-05 10:35:00,36.7,33.2,30.30,South,187,4.0,5.0,87,0.00,,,0.00,VWS V14.01,2013-10-05 16:35:00,
2013-10-05 10:39:00,40.9,34.6,30.30,WSW,253,3.0,3.0,78,0.00,,,0.00,VWS V14.01,2013-10-05 16:39:00,
2013-10-05 10:40:00,36.8,32.7,30.30,SSW,198,1.0,4.0,85,0.00,,,0.00,VWS V14.01,2013-10-05 16:40:00,
2013-10-05 10:44:00,40.8,34.5,30.29,West,266,0.0,3.0,78,0.00,,,0.00,VWS V14.01,2013-10-05 16:44:00,
2013-10-05 10:45:00,36.9,32.5,30.29,SW,231,2.0,3.0,84,0.00,,,0.00,VWS V14.01,2013-10-05 16:45:00,
2013-10-05 10:49:00,41.0,34.3,30.30,SW,224,1.0,3.0,77,0.00,,,0.00,VWS V14.01,2013-10-05 16:49:00,
2013-10-05 10:50:00,36.5,32.4,30.30,WSW,245,5.0,5.0,85,0.00,,,0.00,VWS V14.01,2013-10-05 16:50:00,
2013-10-05 10:54:00,41.5,35.2,30.30,West,277,2.0,2.0,78,0.00,,,0.00,VWS V14.01,2013-10-05 16:54:00,
2013-10-05 10:55:00,36.3,32.5,30.30,WSW,246,5.0,5.0,86,0.00,,,0.00,VWS V14.01,2013-10-05 16:55:00,
2013-10-05 10:59:00,41.9,35.2,30.30,SW,226,2.0,2.0,77,0.00,,,0.00,VWS V14.01,2013-10-05 16:59:00,
2013-10-05 11:00:00,36.2,32.1,30.30,SW,229,3.0,5.0,85,0.00,,,0.00,VWS V14.01,2013-10-05 17:00:00,
2013-10-05 11:04:00,41.9,35.2,30.29,SW,221,1.0,2.0,77,0.00,,,0.00,VWS V14.01,2013-10-05 17:04:00,
2013-10-05 11:05:00,36.4,32.6,30.30,SSW,210,2.0,4.0,86,0.00,,,0.00,VWS V14.01,2013-10-05 17:05:00,
2013-10-05 11:09:00,42.0,35.7,30.29,WSW,257,2.0,2.0,78,0.00,,,0.00,VWS V14.01,2013-10-05 17:09:00,
2013-10-05 11:10:00,36.7,32.9,30.29,SW,220,1.0,3.0,86,0.00,,,0.00,VWS V14.01,2013-10-05 17:10:00,
2013-10-05 11:14:00,42.0,35.3,30.29,SSW,205,0.0,2.0,77,0.00,,,0.00,VWS V14.01,2013-10-05 17:14:00,
2013-10-05 11:15:00,37.9,34.1,30.29,SSE,158,1.0,2.0,86,0.00,,,0.00,VWS V14.01,2013-10-05 17:15:00,
2013-10-05 11:19:00,42.2,35.8,30.29,SW,231,0.0,2.0,78,0.00,,,0.00,VWS V14.01,2013-10-05 17:19:00,
2013-10-05 11:20:00,39.5,35.4,30.29,WSW,237,1.0,1.0,85,0.00,,,0.00,VWS V14.01,2013-10-05 17:20:00,
2013-10-05 11:24:00,42.4,36.0,30.28,SSW,209,1.0,2.0,78,0.00,,,0.00,VWS V14.01,2013-10-05 17:24:00,
2013-10-05 11:25:00,40.2,34.8,30.29,SSW,208,3.0,3.0,81,0.00,,,0.00,VWS V14.01,2013-10-05 17:25:00,
2013-10-05 11:29:00,42.7,36.0,30.28,SSE,160,0.0,1.0,77,0.00,,,0.00,VWS V14.01,2013-10-05 17:29:00,
2013-10-05 11:30:00,40.6,34.3,30.29,SSW,200,1.0,3.0,78,0.00,,,0.00,VWS V14.01,2013-10-05 17:30:00,
2013-10-05 11:34:00,43.3,36.3,30.28,South,187,1.0,2.0,76,0.00,,,0.00,VWS V14.01,2013-10-05 17:34:00,
2013-10-05 11:35:00,40.7,34.4,30.30,SW,236,1.0,3.0,78,0.00,,,0.00,VWS V14.01,2013-10-05 17:35:00,
2013-10-05 11:39:00,43.7,36.3,30.27,SSW,205,0.0,1.0,75,0.00,,,0.00,VWS V14.01,2013-10-05 17:39:00,
2013-10-05 11:40:00,40.9,34.6,30.30,WSW,257,2.0,5.0,78,0.00,,,0.00,VWS V14.01,2013-10-05 17:40:00,
2013-10-05 11:44:00,43.9,36.5,30.27,NE,51,1.0,2.0,75,0.00,,,0.00,VWS V14.01,2013-10-05 17:44:00,
2013-10-05 11:45:00,40.8,34.5,30.29,West,266,0.0,3.0,78,0.00,,,0.00,VWS V14.01,2013-10-05 17:45:00,
2013-10-05 11:49:00,43.9,36.2,30.27,WNW,302,1.0,2.0,74,0.00,,,0.00,VWS V14.01,2013-10-05 17:49:00,
2013-10-05 11:50:00,41.1,34.5,30.30,SSW,210,1.0,3.0,77,0.00,,,0.00,VWS V14.01,2013-10-05 17:50:00,
2013-10-05 11:54:00,43.9,36.2,30.27,WNW,290,2.0,3.0,74,0.00,,,0.00,VWS V14.01,2013-10-05 17:54:00,
2013-10-05 11:55:00,41.6,34.9,30.30,West,273,2.0,3.0,77,0.00,,,0.00,VWS V14.01,2013-10-05 17:55:00,
2013-10-05 11:59:00,44.2,36.1,30.27,NE,53,1.0,2.0,73,0.00,,,0.00,VWS V14.01,2013-10-05 17:59:00,
2013-10-05 12:00:00,41.9,35.2,30.30,WSW,248,2.0,2.0,77,0.00,,,0.00,VWS V14.01,2013-10-05 18:00:00,
2013-10-05 12:04:00,44.7,36.6,30.28,WSW,239,0.0,2.0,73,0.00,,,0.00,VWS V14.01,2013-10-05 18:04:00,
2013-10-05 12:05:00,41.9,35.2,30.29,SW,222,1.0,2.0,77,0.00,,,0.00,VWS V14.01,2013-10-05 18:05:00,
2013-10-05 12:09:00,45.2,36.7,30.28,SSE,150,1.0,4.0,72,0.00,,,0.00,VWS V14.01,2013-10-05 18:09:00,
2013-10-05 12:10:00,42.0,35.3,30.29,WSW,238,1.0,2.0,77,0.00,,,0.00,VWS V14.01,2013-10-05 18:10:00,
2013-10-05 12:14:00,45.7,37.2,30.27,NNW,339,1.0,5.0,72,0.00,,,0.00,VWS V14.01,2013-10-05 18:14:00,
2013-10-05 12:15:00,42.1,35.8,30.29,WSW,239,1.0,2.0,78,0.00,,,0.00,VWS V14.01,2013-10-05 18:15:00,
2013-10-05 12:19:00,46.3,37.1,30.27,NW,312,5.0,5.0,70,0.00,,,0.00,VWS V14.01,2013-10-05 18:19:00,
2013-10-05 12:20:00,42.3,35.9,30.29,SW,231,0.0,2.0,78,0.00,,,0.00,VWS V14.01,2013-10-05 18:20:00,
2013-10-05 12:24:00,46.5,36.5,30.27,NW,316,4.0,6.0,68,0.00,,,0.00,VWS V14.01,2013-10-05 18:24:00,
2013-10-05 12:25:00,42.4,36.0,30.28,SSW,209,1.0,2.0,78,0.00,,,0.00,VWS V14.01,2013-10-05 18:25:00,
2013-10-05 12:29:00,46.4,35.7,30.27,North,6,5.0,8.0,66,0.00,,,0.00,VWS V14.01,2013-10-05 18:29:00,
2013-10-05 12:30:00,42.8,36.1,30.28,SSE,160,0.0,1.0,77,0.00,,,0.00,VWS V14.01,2013-10-05 18:30:00,
2013-10-05 12:34:00,46.8,36.0,30.27,NNE,15,5.0,7.0,66,0.00,,,0.00,VWS V14.01,2013-10-05 18:34:00,
2013-10-05 12:35:00,43.4,36.3,30.28,South,187,0.0,2.0,76,0.00,,,0.00,VWS V14.01,2013-10-05 18:35:00,
2013-10-05 12:39:00,47.6,36.4,30.27,NNE,24,3.0,7.0,65,0.00,,,0.00,VWS V14.01,2013-10-05 18:39:00,
2013-10-05 12:40:00,43.8,36.4,30.27,ENE,62,1.0,1.0,75,0.00,,,0.00,VWS V14.01,2013-10-05 18:40:00,
2013-10-05 12:44:00,48.2,35.8,30.27,NNW,329,5.0,9.0,62,0.00,,,0.00,VWS V14.01,2013-10-05 18:44:00,
2013-10-05 12:45:00,43.9,36.5,30.27,NNW,334,2.0,2.0,75,0.00,,,0.00,VWS V14.01,2013-10-05 18:45:00,
2013-10-05 12:49:00,48.5,35.7,30.27,NNE,22,6.0,11.0,61,0.00,,,0.00,VWS V14.01,2013-10-05 18:49:00,
2013-10-05 12:50:00,43.9,36.5,30.27,North,1,3.0,3.0,75,0.00,,,0.00,VWS V14.01,2013-10-05 18:50:00,
2013-10-05 12:54:00,48.9,36.1,30.26,NNE,28,5.0,8.0,61,0.00,,,0.00,VWS V14.01,2013-10-05 18:54:00,
2013-10-05 12:55:00,44.0,36.3,30.27,WNW,290,0.0,3.0,74,0.00,,,0.00,VWS V14.01,2013-10-05 18:55:00,
2013-10-05 12:59:00,49.2,36.8,30.26,NNE,19,3.0,8.0,62,0.00,,,0.00,VWS V14.01,2013-10-05 18:59:00,
2013-10-05 13:00:00,44.3,36.2,30.27,NNW,341,0.0,2.0,73,0.00,,,0.00,VWS V14.01,2013-10-05 19:00:00,
2013-10-05 13:04:00,49.6,36.7,30.26,NNW,341,5.0,7.0,61,0.00,,,0.00,VWS V14.01,2013-10-05 19:04:00,
2013-10-05 13:05:00,44.8,36.7,30.28,WSW,240,0.0,2.0,73,0.00,,,0.00,VWS V14.01,2013-10-05 19:05:00,
2013-10-05 13:09:00,50.2,36.9,30.26,NE,49,4.0,7.0,60,0.00,,,0.00,VWS V14.01,2013-10-05 19:09:00,
2013-10-05 13:10:00,45.3,37.2,30.28,NNW,347,3.0,4.0,73,0.00,,,0.00,VWS V14.01,2013-10-05 19:10:00,
2013-10-05 13:14:00,50.5,36.7,30.26,North,3,4.0,9.0,59,0.00,,,0.00,VWS V14.01,2013-10-05 19:14:00,
2013-10-05 13:15:00,45.8,37.7,30.27,NNW,339,0.0,5.0,73,0.00,,,0.00,VWS V14.01,2013-10-05 19:15:00,
2013-10-05 13:19:00,50.9,36.7,30.26,NNE,19,3.0,11.0,58,0.00,,,0.00,VWS V14.01,2013-10-05 19:19:00,
2013-10-05 13:20:00,46.4,37.2,30.27,NNW,338,2.0,5.0,70,0.00,,,0.00,VWS V14.01,2013-10-05 19:20:00,
2013-10-05 13:24:00,51.0,35.9,30.25,NNW,339,3.0,8.0,56,0.00,,,0.00,VWS V14.01,2013-10-05 19:24:00,
2013-10-05 13:25:00,46.5,36.2,30.27,NNE,15,4.0,7.0,67,0.00,,,0.00,VWS V14.01,2013-10-05 19:25:00,
2013-10-05 13:29:00,51.1,35.5,30.25,North,6,3.0,9.0,55,0.00,,,0.00,VWS V14.01,2013-10-05 19:29:00,
2013-10-05 13:30:00,46.4,35.7,30.27,NNW,348,5.0,11.0,66,0.00,,,0.00,VWS V14.01,2013-10-05 19:30:00,
2013-10-05 13:34:00,51.9,36.3,30.25,NNW,342,7.0,10.0,55,0.00,,,0.00,VWS V14.01,2013-10-05 19:34:00,
2013-10-05 13:35:00,47.0,35.9,30.27,North,8,3.0,7.0,65,0.00,,,0.00,VWS V14.01,2013-10-05 19:35:00,
2013-10-05 13:39:00,52.1,35.0,30.25,NNW,334,6.0,9.0,52,0.00,,,0.00,VWS V14.01,2013-10-05 19:39:00,
2013-10-05 13:40:00,47.6,36.0,30.27,NNW,338,4.0,7.0,64,0.00,,,0.00,VWS V14.01,2013-10-05 19:40:00,
2013-10-05 13:44:00,52.0,35.4,30.24,North,3,4.0,10.0,53,0.00,,,0.00,VWS V14.01,2013-10-05 19:44:00,
2013-10-05 13:45:00,48.3,36.3,30.27,NNE,30,2.0,9.0,63,0.00,,,0.00,VWS V14.01,2013-10-05 19:45:00,
2013-10-05 13:49:00,51.9,35.8,30.24,NNE,32,6.0,7.0,54,0.00,,,0.00,VWS V14.01,2013-10-05 19:49:00,
2013-10-05 13:50:00,48.5,36.1,30.27,NNW,334,3.0,11.0,62,0.00,,,0.00,VWS V14.01,2013-10-05 19:50:00,
2013-10-05 13:54:00,51.6,35.5,30.24,ENE,67,4.0,7.0,54,0.00,,,0.00,VWS V14.01,2013-10-05 19:54:00,
2013-10-05 13:55:00,48.9,36.1,30.26,NNW,330,3.0,9.0,61,0.00,,,0.00,VWS V14.01,2013-10-05 19:55:00,
2013-10-05 13:59:00,51.8,35.7,30.23,NE,41,2.0,9.0,54,0.00,,,0.00,VWS V14.01,2013-10-05 19:59:00,
2013-10-05 14:00:00,49.4,36.1,30.26,NNE,12,4.0,8.0,60,0.00,,,0.00,VWS V14.01,2013-10-05 20:00:00,
2013-10-05 14:04:00,51.9,35.8,30.23,ENE,61,6.0,8.0,54,0.00,,,0.00,VWS V14.01,2013-10-05 20:04:00,
2013-10-05 14:05:00,49.7,36.8,30.26,NE,46,5.0,7.0,61,0.00,,,0.00,VWS V14.01,2013-10-05 20:05:00,
2013-10-05 14:09:00,52.0,36.8,30.23,NE,44,3.0,6.0,56,0.00,,,0.00,VWS V14.01,2013-10-05 20:09:00,
2013-10-05 14:10:00,50.3,36.5,30.26,NNE,27,3.0,7.0,59,0.00,,,0.00,VWS V14.01,2013-10-05 20:10:00,
2013-10-05 14:14:00,52.3,36.2,30.23,NNE,31,7.0,9.0,54,0.00,,,0.00,VWS V14.01,2013-10-05 20:14:00,
2013-10-05 14:15:00,50.6,37.7,30.26,North,4,8.0,9.0,61,0.00,,,0.00,VWS V14.01,2013-10-05 20:15:00,
2013-10-05 14:19:00,51.8,35.7,30.23,NE,56,3.0,7.0,54,0.00,,,0.00,VWS V14.01,2013-10-05 20:19:00,
2013-10-05 14:20:00,51.0,37.2,30.26,NE,54,6.0,11.0,59,0.00,,,0.00,VWS V14.01,2013-10-05 20:20:00,
2013-10-05 14:24:00,51.6,36.4,30.23,ENE,67,3.0,7.0,56,0.00,,,0.00,VWS V14.01,2013-10-05 20:24:00,
2013-10-05 14:25:00,51.1,37.3,30.25,NE,51,6.0,8.0,59,0.00,,,0.00,VWS V14.01,2013-10-05 20:25:00,
2013-10-05 14:29:00,51.8,37.1,30.22,NE,54,8.0,9.0,57,0.00,,,0.00,VWS V14.01,2013-10-05 20:29:00,
2013-10-05 14:30:00,51.2,36.1,30.25,NNW,342,5.0,9.0,56,0.00,,,0.00,VWS V14.01,2013-10-05 20:30:00,
2013-10-05 14:34:00,51.9,36.7,30.22,North,4,3.0,6.0,56,0.00,,,0.00,VWS V14.01,2013-10-05 20:34:00,
2013-10-05 14:35:00,51.9,35.3,30.25,North,352,5.0,10.0,53,0.00,,,0.00,VWS V14.01,2013-10-05 20:35:00,
2013-10-05 14:39:00,52.6,36.5,30.22,North,8,7.0,8.0,54,0.00,,,0.00,VWS V14.01,2013-10-05 20:39:00,
2013-10-05 14:40:00,52.0,34.9,30.25,North,356,7.0,9.0,52,0.00,,,0.00,VWS V14.01,2013-10-05 20:40:00,
2013-10-05 14:44:00,52.9,35.3,30.22,ENE,62,6.0,10.0,51,0.00,,,0.00,VWS V14.01,2013-10-05 20:44:00,
2013-10-05 14:45:00,52.0,35.9,30.24,North,6,7.0,10.0,54,0.00,,,0.00,VWS V14.01,2013-10-05 20:45:00,
2013-10-05 14:49:00,53.0,35.4,30.22,NE,41,4.0,9.0,51,0.00,,,0.00,VWS V14.01,2013-10-05 20:49:00,
2013-10-05 14:50:00,51.9,35.3,30.24,NE,39,3.0,7.0,53,0.00,,,0.00,VWS V14.01,2013-10-05 20:50:00,
2013-10-05 14:54:00,53.2,35.1,30.22,North,11,7.0,8.0,50,0.00,,,0.00,VWS V14.01,2013-10-05 20:54:00,
2013-10-05 14:55:00,51.6,36.0,30.24,NE,44,1.0,7.0,55,0.00,,,0.00,VWS V14.01,2013-10-05 20:55:00,
2013-10-05 14:59:00,53.2,35.1,30.22,NE,42,4.0,9.0,50,0.00,,,0.00,VWS V14.01,2013-10-05 20:59:00,
2013-10-05 15:00:00,51.9,35.8,30.23,NNE,32,8.0,9.0,54,0.00,,,0.00,VWS V14.01,2013-10-05 21:00:00,
2013-10-05 15:04:00,53.2,34.5,30.21,NNE,26,3.0,10.0,49,0.00,,,0.00,VWS V14.01,2013-10-05 21:04:00,
2013-10-05 15:05:00,51.8,35.7,30.23,NNE,33,4.0,8.0,54,0.00,,,0.00,VWS V14.01,2013-10-05 21:05:00,
2013-10-05 15:09:00,53.2,34.0,30.21,NE,47,2.0,7.0,48,0.00,,,0.00,VWS V14.01,2013-10-05 21:09:00,
2013-10-05 15:10:00,52.0,36.3,30.23,East,98,4.0,7.0,55,0.00,,,0.00,VWS V14.01,2013-10-05 21:10:00,
2013-10-05 15:14:00,53.1,32.9,30.21,NE,34,8.0,8.0,46,0.00,,,0.00,VWS V14.01,2013-10-05 21:14:00,
2013-10-05 15:15:00,52.2,35.6,30.23,NNE,26,6.0,9.0,53,0.00,,,0.00,VWS V14.01,2013-10-05 21:15:00,
2013-10-05 15:19:00,52.9,33.2,30.21,NNE,28,4.0,11.0,47,0.00,,,0.00,VWS V14.01,2013-10-05 21:19:00,
2013-10-05 15:20:00,51.7,35.1,30.23,NE,56,5.0,8.0,53,0.00,,,0.00,VWS V14.01,2013-10-05 21:20:00,
2013-10-05 15:24:00,53.4,32.0,30.21,NE,37,2.0,8.0,44,0.00,,,0.00,VWS V14.01,2013-10-05 21:24:00,
2013-10-05 15:25:00,51.6,36.4,30.23,NNE,26,6.0,7.0,56,0.00,,,0.00,VWS V14.01,2013-10-05 21:25:00,
2013-10-05 15:29:00,54.1,30.9,30.21,NE,44,5.0,10.0,41,0.00,,,0.00,VWS V14.01,2013-10-05 21:29:00,
2013-10-05 15:30:00,51.8,36.6,30.22,ENE,63,4.0,9.0,56,0.00,,,0.00,VWS V14.01,2013-10-05 21:30:00,
2013-10-05 15:34:00,54.7,31.5,30.20,North,4,6.0,11.0,41,0.00,,,0.00,VWS V14.01,2013-10-05 21:34:00,
2013-10-05 15:35:00,52.0,37.3,30.22,NNE,12,3.0,6.0,57,0.00,,,0.00,VWS V14.01,2013-10-05 21:35:00,
2013-10-05 15:39:00,54.8,31.6,30.20,NNE,18,5.0,11.0,41,0.00,,,0.00,VWS V14.01,2013-10-05 21:39:00,
2013-10-05 15:40:00,52.7,36.1,30.22,NE,37,5.0,8.0,53,0.00,,,0.00,VWS V14.01,2013-10-05 21:40:00,
2013-10-05 15:44:00,55.1,31.8,30.20,NNE,30,5.0,9.0,41,0.00,,,0.00,VWS V14.01,2013-10-05 21:44:00,
2013-10-05 15:45:00,52.8,35.7,30.22,NNE,32,5.0,10.0,52,0.00,,,0.00,VWS V14.01,2013-10-05 21:45:00,
2013-10-05 15:49:00,55.7,30.5,30.20,NE,42,7.0,10.0,38,0.00,,,0.00,VWS V14.01,2013-10-05 21:49:00,
2013-10-05 15:50:00,53.1,36.0,30.22,NE,54,7.0,9.0,52,0.00,,,0.00,VWS V14.01,2013-10-05 21:50:00,
2013-10-05 15:54:00,56.1,31.5,30.20,NNW,333,7.0,11.0,39,0.00,,,0.00,VWS V14.01,2013-10-05 21:54:00,
2013-10-05 15:55:00,53.1,34.5,30.22,North,11,6.0,11.0,49,0.00,,,0.00,VWS V14.01,2013-10-05 21:55:00,
2013-10-05 15:59:00,56.0,30.8,30.19,NNW,346,8.0,11.0,38,0.00,,,0.00,VWS V14.01,2013-10-05 21:59:00,
2013-10-05 16:00:00,53.3,35.7,30.21,NNE,12,3.0,9.0,51,0.00,,,0.00,VWS V14.01,2013-10-05 22:00:00,
2013-10-05 16:04:00,56.1,30.2,30.19,NNE,23,8.0,13.0,37,0.00,,,0.00,VWS V14.01,2013-10-05 22:04:00,
2013-10-05 16:05:00,53.2,34.5,30.21,NE,44,3.0,10.0,49,0.00,,,0.00,VWS V14.01,2013-10-05 22:05:00,
2013-10-05 16:09:00,56.1,31.5,30.19,NNE,32,5.0,8.0,39,0.00,,,0.00,VWS V14.01,2013-10-05 22:09:00,
2013-10-05 16:10:00,53.2,34.5,30.21,NNE,27,4.0,7.0,49,0.00,,,0.00,VWS V14.01,2013-10-05 22:10:00,
2013-10-05 16:14:00,56.1,30.2,30.19,NNE,13,6.0,10.0,37,0.00,,,0.00,VWS V14.01,2013-10-05 22:14:00,
2013-10-05 16:15:00,53.0,33.3,30.21,North,11,7.0,8.0,47,0.00,,,0.00,VWS V14.01,2013-10-05 22:15:00,
2013-10-05 16:19:00,55.8,30.6,30.19,NNW,337,5.0,9.0,38,0.00,,,0.00,VWS V14.01,2013-10-05 22:19:00,
2013-10-05 16:20:00,52.9,32.7,30.21,NE,49,5.0,11.0,46,0.00,,,0.00,VWS V14.01,2013-10-05 22:20:00,
2013-10-05 16:24:00,56.0,30.8,30.18,North,360,8.0,9.0,38,0.00,,,0.00,VWS V14.01,2013-10-05 22:24:00,
2013-10-05 16:25:00,53.6,32.2,30.21,NNE,23,7.0,8.0,44,0.00,,,0.00,VWS V14.01,2013-10-05 22:25:00,
2013-10-05 16:29:00,56.2,31.6,30.18,NNE,12,6.0,12.0,39,0.00,,,0.00,VWS V14.01,2013-10-05 22:29:00,
2013-10-05 16:30:00,54.3,31.7,30.21,North,10,9.0,10.0,42,0.00,,,0.00,VWS V14.01,2013-10-05 22:30:00,
2013-10-05 16:34:00,56.5,31.2,30.18,NNE,21,5.0,10.0,38,0.00,,,0.00,VWS V14.01,2013-10-05 22:34:00,
2013-10-05 16:35:00,54.7,31.5,30.20,NNE,27,8.0,11.0,41,0.00,,,0.00,VWS V14.01,2013-10-05 22:35:00,
2013-10-05 16:39:00,56.6,32.0,30.18,NNW,337,6.0,9.0,39,0.00,,,0.00,VWS V14.01,2013-10-05 22:39:00,
2013-10-05 16:40:00,54.8,31.6,30.20,ENE,59,9.0,11.0,41,0.00,,,0.00,VWS V14.01,2013-10-05 22:40:00,
2013-10-05 16:44:00,56.3,31.7,30.18,NE,39,5.0,9.0,39,0.00,,,0.00,VWS V14.01,2013-10-05 22:44:00,
2013-10-05 16:45:00,55.3,32.0,30.20,NNE,27,4.0,9.0,41,0.00,,,0.00,VWS V14.01,2013-10-05 22:45:00,
2013-10-05 16:49:00,56.3,30.4,30.18,North,354,4.0,10.0,37,0.00,,,0.00,VWS V14.01,2013-10-05 22:49:00,
2013-10-05 16:50:00,55.7,31.1,30.20,NNE,27,6.0,10.0,39,0.00,,,0.00,VWS V14.01,2013-10-05 22:50:00,
2013-10-05 16:54:00,56.3,31.0,30.18,NNE,23,7.0,9.0,38,0.00,,,0.00,VWS V14.01,2013-10-05 22:54:00,
2013-10-05 16:55:00,56.2,30.3,30.20,NNW,329,10.0,11.0,37,0.00,,,0.00,VWS V14.01,2013-10-05 22:55:00,
2013-10-05 16:59:00,56.6,28.6,30.18,NE,51,3.0,6.0,34,0.00,,,0.00,VWS V14.01,2013-10-05 22:59:00,
2013-10-05 17:00:00,56.0,30.1,30.19,NNE,13,7.0,11.0,37,0.00,,,0.00,VWS V14.01,2013-10-05 23:00:00,
2013-10-05 17:04:00,56.7,27.9,30.18,NNE,25,7.0,9.0,33,0.00,,,0.00,VWS V14.01,2013-10-05 23:04:00,
2013-10-05 17:05:00,56.1,30.9,30.19,NE,35,3.0,13.0,38,0.00,,,0.00,VWS V14.01,2013-10-05 23:05:00,
2013-10-05 17:09:00,56.5,29.2,30.18,ENE,68,2.0,8.0,35,0.00,,,0.00,VWS V14.01,2013-10-05 23:09:00,
2013-10-05 17:10:00,56.1,30.9,30.19,ENE,76,3.0,8.0,38,0.00,,,0.00,VWS V14.01,2013-10-05 23:10:00,
2013-10-05 17:14:00,56.5,29.9,30.18,North,1,4.0,6.0,36,0.00,,,0.00,VWS V14.01,2013-10-05 23:14:00,
2013-10-05 17:15:00,56.0,30.1,30.19,NW,319,6.0,10.0,37,0.00,,,0.00,VWS V14.01,2013-10-05 23:15:00,
2013-10-05 17:19:00,56.3,29.0,30.17,North,9,4.0,9.0,35,0.00,,,0.00,VWS V14.01,2013-10-05 23:19:00,
2013-10-05 17:20:00,55.8,29.9,30.19,NNE,23,6.0,11.0,37,0.00,,,0.00,VWS V14.01,2013-10-05 23:20:00,
2013-10-05 17:24:00,56.3,29.7,30.17,NE,38,6.0,8.0,36,0.00,,,0.00,VWS V14.01,2013-10-05 23:24:00,
2013-10-05 17:25:00,56.1,30.2,30.18,NE,44,6.0,9.0,37,0.00,,,0.00,VWS V14.01,2013-10-05 23:25:00,
2013-10-05 17:29:00,56.3,31.0,30.17,NNW,348,3.0,6.0,38,0.00,,,0.00,VWS V14.01,2013-10-05 23:29:00,
2013-10-05 17:30:00,56.3,32.3,30.18,ENE,62,4.0,12.0,40,0.00,,,0.00,VWS V14.01,2013-10-05 23:30:00,
2013-10-05 17:34:00,56.5,32.5,30.17,NNE,22,4.0,6.0,40,0.00,,,0.00,VWS V14.01,2013-10-05 23:34:00,
2013-10-05 17:35:00,56.5,31.2,30.18,North,4,5.0,10.0,38,0.00,,,0.00,VWS V14.01,2013-10-05 23:35:00,
2013-10-05 17:39:00,56.7,33.3,30.17,NNE,12,4.0,7.0,41,0.00,,,0.00,VWS V14.01,2013-10-05 23:39:00,
2013-10-05 17:40:00,56.5,29.2,30.18,NE,52,5.0,9.0,35,0.00,,,0.00,VWS V14.01,2013-10-05 23:40:00,
2013-10-05 17:44:00,56.7,32.7,30.17,NNW,346,4.0,6.0,40,0.00,,,0.00,VWS V14.01,2013-10-05 23:44:00,
2013-10-05 17:45:00,56.3,30.4,30.18,NNE,33,3.0,9.0,37,0.00,,,0.00,VWS V14.01,2013-10-05 23:45:00,
2013-10-05 17:49:00,56.7,32.7,30.17,NE,46,2.0,6.0,40,0.00,,,0.00,VWS V14.01,2013-10-05 23:49:00,
2013-10-05 17:50:00,56.3,30.4,30.18,NNE,25,4.0,10.0,37,0.00,,,0.00,VWS V14.01,2013-10-05 23:50:00,
2013-10-05 17:54:00,56.7,32.7,30.17,NNE,33,1.0,7.0,40,0.00,,,0.00,VWS V14.01,2013-10-05 23:54:00,
2013-10-05 17:55:00,56.3,31.0,30.18,NNE,20,4.0,9.0,38,0.00,,,0.00,VWS V14.01,2013-10-05 23:55:00,
2013-10-05 17:59:00,56.7,33.3,30.17,NW,312,2.0,4.0,41,0.00,,,0.00,VWS V14.01,2013-10-05 23:59:00,
2013-10-05 18:00:00,56.6,29.3,30.18,NNE,15,4.0,6.0,35,0.00,,,0.00,VWS V14.01,2013-10-06 00:00:00,
2013-10-05 18:04:00,56.7,32.0,30.17,NE,56,4.0,6.0,39,0.00,,,0.00,VWS V14.01,2013-10-06 00:04:00,
2013-10-05 18:05:00,56.7,27.9,30.18,NE,41,8.0,9.0,33,0.00,,,0.00,VWS V14.01,2013-10-06 00:05:00,
2013-10-05 18:09:00,56.7,32.7,30.16,NNW,347,2.0,6.0,40,0.00,,,0.00,VWS V14.01,2013-10-06 00:09:00,
2013-10-05 18:10:00,56.5,29.2,30.18,NE,37,3.0,8.0,35,0.00,,,0.00,VWS V14.01,2013-10-06 00:10:00,
2013-10-05 18:14:00,56.6,34.4,30.16,North,352,3.0,4.0,43,0.00,,,0.00,VWS V14.01,2013-10-06 00:14:00,
2013-10-05 18:15:00,56.4,29.8,30.18,NNE,18,4.0,6.0,36,0.00,,,0.00,VWS V14.01,2013-10-06 00:15:00,
2013-10-05 18:19:00,56.3,33.5,30.16,NNW,338,2.0,4.0,42,0.00,,,0.00,VWS V14.01,2013-10-06 00:19:00,
2013-10-05 18:20:00,56.3,29.0,30.17,North,9,4.0,9.0,35,0.00,,,0.00,VWS V14.01,2013-10-06 00:20:00,
2013-10-05 18:24:00,55.9,33.8,30.16,NNW,346,2.0,2.0,43,0.00,,,0.00,VWS V14.01,2013-10-06 00:24:00,
2013-10-05 18:25:00,56.3,29.7,30.17,NE,44,3.0,8.0,36,0.00,,,0.00,VWS V14.01,2013-10-06 00:25:00,
2013-10-05 18:29:00,55.5,33.4,30.16,NNW,337,2.0,3.0,43,0.00,,,0.00,VWS V14.01,2013-10-06 00:29:00,
2013-10-05 18:30:00,56.3,31.0,30.17,NE,56,3.0,9.0,38,0.00,,,0.00,VWS V14.01,2013-10-06 00:30:00,
2013-10-05 18:34:00,55.2,33.7,30.16,NNW,332,1.0,2.0,44,0.00,,,0.00,VWS V14.01,2013-10-06 00:34:00,
2013-10-05 18:35:00,56.5,32.5,30.17,NNE,15,3.0,6.0,40,0.00,,,0.00,VWS V14.01,2013-10-06 00:35:00,
2013-10-05 18:39:00,54.9,33.4,30.16,NNW,327,2.0,2.0,44,0.00,,,0.00,VWS V14.01,2013-10-06 00:39:00,
2013-10-05 18:40:00,56.7,33.3,30.17,North,1,4.0,7.0,41,0.00,,,0.00,VWS V14.01,2013-10-06 00:40:00,
2013-10-05 18:44:00,54.6,33.7,30.16,NW,319,2.0,2.0,45,0.00,,,0.00,VWS V14.01,2013-10-06 00:44:00,
2013-10-05 18:45:00,56.7,32.7,30.17,NNW,339,3.0,6.0,40,0.00,,,0.00,VWS V14.01,2013-10-06 00:45:00,
2013-10-05 18:49:00,53.8,33.0,30.16,WNW,289,1.0,2.0,45,0.00,,,0.00,VWS V14.01,2013-10-06 00:49:00,
2013-10-05 18:50:00,56.7,32.7,30.17,NNE,20,2.0,6.0,40,0.00,,,0.00,VWS V14.01,2013-10-06 00:50:00,
2013-10-05 18:54:00,53.0,33.3,30.16,WNW,289,0.0,1.0,47,0.00,,,0.00,VWS V14.01,2013-10-06 00:54:00,
2013-10-05 18:55:00,56.7,32.7,30.17,NNE,33,0.0,7.0,40,0.00,,,0.00,VWS V14.01,2013-10-06 00:55:00,
2013-10-05 18:59:00,52.0,33.5,30.16,WNW,290,1.0,1.0,49,0.00,,,0.00,VWS V14.01,2013-10-06 00:59:00,
2013-10-05 19:00:00,56.7,32.7,30.17,NNE,15,2.0,4.0,40,0.00,,,0.00,VWS V14.01,2013-10-06 01:00:00,
2013-10-05 19:04:00,51.2,34.2,30.16,WNW,290,0.0,1.0,52,0.00,,,0.00,VWS V14.01,2013-10-06 01:04:00,
2013-10-05 19:09:00,50.6,33.6,30.16,WNW,290,0.0,0.0,52,0.00,,,0.00,VWS V14.01,2013-10-06 01:09:00,
2013-10-05 19:10:00,56.7,33.3,30.16,NNW,334,3.0,6.0,41,0.00,,,0.00,VWS V14.01,2013-10-06 01:10:00,
2013-10-05 19:14:00,49.3,34.7,30.16,SE,143,3.0,4.0,57,0.00,,,0.00,VWS V14.01,2013-10-06 01:14:00,
2013-10-05 19:15:00,56.6,34.4,30.16,NNW,337,3.0,4.0,43,0.00,,,0.00,VWS V14.01,2013-10-06 01:15:00,
2013-10-05 19:19:00,47.2,34.5,30.16,SE,131,2.0,3.0,61,0.00,,,0.00,VWS V14.01,2013-10-06 01:19:00,
2013-10-05 19:20:00,56.3,33.5,30.16,NNW,338,1.0,4.0,42,0.00,,,0.00,VWS V14.01,2013-10-06 01:20:00,
2013-10-05 19:24:00,46.0,34.5,30.16,ESE,113,4.0,4.0,64,0.00,,,0.00,VWS V14.01,2013-10-06 01:24:00,
2013-10-05 19:25:00,55.9,33.8,30.16,NNW,345,2.0,2.0,43,0.00,,,0.00,VWS V14.01,2013-10-06 01:25:00,
2013-10-05 19:29:00,45.3,34.6,30.17,SE,127,3.0,4.0,66,0.00,,,0.00,VWS V14.01,2013-10-06 01:29:00,
2013-10-05 19:30:00,55.5,33.4,30.16,NNW,337,2.0,3.0,43,0.00,,,0.00,VWS V14.01,2013-10-06 01:30:00,
2013-10-05 19:34:00,44.8,34.5,30.17,ESE,119,2.0,4.0,67,0.00,,,0.00,VWS V14.01,2013-10-06 01:34:00,
2013-10-05 19:35:00,55.2,33.7,30.16,NNW,332,1.0,2.0,44,0.00,,,0.00,VWS V14.01,2013-10-06 01:35:00,
2013-10-05 19:39:00,44.5,35.0,30.16,East,90,1.0,3.0,69,0.00,,,0.00,VWS V14.01,2013-10-06 01:39:00,
2013-10-05 19:40:00,54.9,33.4,30.16,NNW,327,2.0,2.0,44,0.00,,,0.00,VWS V14.01,2013-10-06 01:40:00,
2013-10-05 19:44:00,44.4,34.9,30.16,SE,134,3.0,4.0,69,0.00,,,0.00,VWS V14.01,2013-10-06 01:44:00,
2013-10-05 19:45:00,54.5,33.0,30.16,NW,319,2.0,2.0,44,0.00,,,0.00,VWS V14.01,2013-10-06 01:45:00,
2013-10-05 19:50:00,43.8,34.7,30.17,SE,134,3.0,4.0,70,0.00,,,0.00,VWS V14.01,2013-10-06 01:50:00,
2013-10-05 19:55:00,43.1,34.3,30.17,SE,126,2.0,2.0,71,0.00,,,0.00,VWS V14.01,2013-10-06 01:55:00,
2013-10-05 20:00:00,42.6,34.6,30.17,SE,139,2.0,2.0,73,0.00,,,0.00,VWS V14.01,2013-10-06 02:00:00,
2013-10-05 20:05:00,43.0,35.0,30.17,SE,141,1.0,2.0,73,0.00,,,0.00,VWS V14.01,2013-10-06 02:05:00,
2013-10-05 20:10:00,43.1,34.7,30.17,SSE,153,0.0,0.0,72,0.00,,,0.00,VWS V14.01,2013-10-06 02:10:00,
2013-10-05 20:15:00,42.8,35.1,30.17,SSE,153,1.0,1.0,74,0.00,,,0.00,VWS V14.01,2013-10-06 02:15:00,
2013-10-05 20:20:00,42.6,35.2,30.17,SSE,153,0.0,0.0,75,0.00,,,0.00,VWS V14.01,2013-10-06 02:20:00,
2013-10-05 20:25:00,42.4,35.0,30.17,SSE,153,0.0,0.0,75,0.00,,,0.00,VWS V14.01,2013-10-06 02:25:00,
2013-10-05 20:30:00,42.4,35.4,30.17,SSE,153,0.0,0.0,76,0.00,,,0.00,VWS V14.01,2013-10-06 02:30:00,
2013-10-05 20:35:00,42.0,35.0,30.17,ESE,119,0.0,0.0,76,0.00,,,0.00,VWS V14.01,2013-10-06 02:35:00,
2013-10-05 20:40:00,41.3,34.3,30.17,SE,141,1.0,1.0,76,0.00,,,0.00,VWS V14.01,2013-10-06 02:40:00,
2013-10-05 20:45:00,40.8,33.8,30.17,SE,134,1.0,1.0,76,0.00,,,0.00,VWS V14.01,2013-10-06 02:45:00,
2013-10-05 20:50:00,40.5,33.5,30.17,SE,134,1.0,1.0,76,0.00,,,0.00,VWS V14.01,2013-10-06 02:50:00,
2013-10-05 20:55:00,40.0,33.4,30.17,SE,137,0.0,1.0,77,0.00,,,0.00,VWS V14.01,2013-10-06 02:55:00,
2013-10-05 21:00:00,39.3,32.7,30.17,SE,136,1.0,1.0,77,0.00,,,0.00,VWS V14.01,2013-10-06 03:00:00,
2013-10-05 21:05:00,38.9,32.6,30.17,SE,141,2.0,3.0,78,0.00,,,0.00,VWS V14.01,2013-10-06 03:05:00,
2013-10-05 21:10:00,39.2,33.6,30.17,SE,145,0.0,0.0,80,0.00,,,0.00,VWS V14.01,2013-10-06 03:10:00,
2013-10-05 21:15:00,39.0,33.0,30.18,SE,145,0.0,0.0,79,0.00,,,0.00,VWS V14.01,2013-10-06 03:15:00,
2013-10-05 21:20:00,38.6,33.3,30.18,SE,145,0.0,0.0,81,0.00,,,0.00,VWS V14.01,2013-10-06 03:20:00,
2013-10-05 21:25:00,38.5,34.1,30.18,SE,145,0.0,0.0,84,0.00,,,0.00,VWS V14.01,2013-10-06 03:25:00,
2013-10-05 21:30:00,38.4,34.3,30.18,SE,145,0.0,0.0,85,0.00,,,0.00,VWS V14.01,2013-10-06 03:30:00,
2013-10-05 21:35:00,38.3,34.2,30.18,SE,145,0.0,0.0,85,0.00,,,0.00,VWS V14.01,2013-10-06 03:35:00,
2013-10-05 21:40:00,38.0,33.6,30.18,SE,146,0.0,0.0,84,0.00,,,0.00,VWS V14.01,2013-10-06 03:40:00,
2013-10-05 21:45:00,37.9,34.1,30.17,SE,146,0.0,0.0,86,0.00,,,0.00,VWS V14.01,2013-10-06 03:45:00,
2013-10-05 21:50:00,37.6,33.8,30.18,WSW,239,0.0,0.0,86,0.00,,,0.00,VWS V14.01,2013-10-06 03:50:00,
2013-10-05 21:55:00,37.9,34.7,30.18,WSW,252,0.0,0.0,88,0.00,,,0.00,VWS V14.01,2013-10-06 03:55:00,
2013-10-05 22:00:00,38.2,34.7,30.18,WSW,252,0.0,0.0,87,0.00,,,0.00,VWS V14.01,2013-10-06 04:00:00,
2013-10-05 22:01:00,38.3,34.8,30.17,WSW,252,0.0,0.0,87,0.00,,,0.00,VWS V14.01,2013-10-06 04:01:00,
2013-10-05 22:02:00,38.3,35.1,30.17,WSW,252,0.0,0.0,88,0.00,,,0.00,VWS V14.01,2013-10-06 04:02:00,
2013-10-05 22:05:00,38.9,32.6,30.17,SE,131,3.0,3.0,78,0.00,,,0.00,VWS V14.01,2013-10-06 04:05:00,
2013-10-05 22:07:00,37.8,34.3,30.17,WSW,252,0.0,0.0,87,0.00,,,0.00,VWS V14.01,2013-10-06 04:07:00,
2013-10-05 22:10:00,39.2,33.6,30.17,SE,145,0.0,3.0,80,0.00,,,0.00,VWS V14.01,2013-10-06 04:10:00,
2013-10-05 22:12:00,38.2,35.2,30.17,WSW,252,0.0,0.0,89,0.00,,,0.00,VWS V14.01,2013-10-06 04:12:00,
2013-10-05 22:15:00,39.0,33.0,30.17,SE,145,0.0,0.0,79,0.00,,,0.00,VWS V14.01,2013-10-06 04:15:00,
2013-10-05 22:17:00,38.1,34.3,30.18,WSW,252,0.0,0.0,86,0.00,,,0.00,VWS V14.01,2013-10-06 04:17:00,
2013-10-05 22:20:00,38.7,33.1,30.18,SE,145,0.0,0.0,80,0.00,,,0.00,VWS V14.01,2013-10-06 04:20:00,
2013-10-05 22:22:00,37.5,33.7,30.18,SE,124,0.0,0.0,86,0.00,,,0.00,VWS V14.01,2013-10-06 04:22:00,
2013-10-05 22:25:00,38.4,33.7,30.17,SE,145,0.0,0.0,83,0.00,,,0.00,VWS V14.01,2013-10-06 04:25:00,
2013-10-05 22:27:00,36.9,33.1,30.18,SE,134,3.0,3.0,86,0.00,,,0.00,VWS V14.01,2013-10-06 04:27:00,
2013-10-05 22:30:00,38.4,34.3,30.18,SE,145,0.0,0.0,85,0.00,,,0.00,VWS V14.01,2013-10-06 04:30:00,
2013-10-05 22:32:00,36.5,32.4,30.17,SE,135,1.0,2.0,85,0.00,,,0.00,VWS V14.01,2013-10-06 04:32:00,
2013-10-05 22:35:00,38.3,34.2,30.18,SE,145,0.0,0.0,85,0.00,,,0.00,VWS V14.01,2013-10-06 04:35:00,
2013-10-05 22:37:00,35.9,31.8,30.17,ESE,106,0.0,2.0,85,0.00,,,0.00,VWS V14.01,2013-10-06 04:37:00,
2013-10-05 22:40:00,38.0,33.6,30.18,SE,145,0.0,0.0,84,0.00,,,0.00,VWS V14.01,2013-10-06 04:40:00,
2013-10-05 22:43:00,35.8,32.0,30.18,East,82,0.0,1.0,86,0.00,,,0.00,VWS V14.01,2013-10-06 04:43:00,
2013-10-05 22:45:00,37.9,34.1,30.17,SE,146,0.0,0.0,86,0.00,,,0.00,VWS V14.01,2013-10-06 04:45:00,
2013-10-05 22:48:00,36.1,32.6,30.18,East,82,1.0,1.0,87,0.00,,,0.00,VWS V14.01,2013-10-06 04:48:00,
2013-10-05 22:50:00,37.7,33.6,30.18,SE,145,0.0,0.0,85,0.00,,,0.00,VWS V14.01,2013-10-06 04:50:00,
2013-10-05 22:53:00,36.4,32.6,30.18,East,99,1.0,1.0,86,0.00,,,0.00,VWS V14.01,2013-10-06 04:53:00,
2013-10-05 22:55:00,37.8,34.6,30.17,WSW,251,0.0,0.0,88,0.00,,,0.00,VWS V14.01,2013-10-06 04:55:00,
2013-10-05 22:58:00,36.4,32.3,30.17,East,99,0.0,0.0,85,0.00,,,0.00,VWS V14.01,2013-10-06 04:58:00,
2013-10-05 23:00:00,38.2,34.7,30.18,WSW,252,0.0,0.0,87,0.00,,,0.00,VWS V14.01,2013-10-06 05:00:00,
2013-10-05 23:03:00,35.7,31.6,30.17,NE,41,1.0,2.0,85,0.00,,,0.00,VWS V14.01,2013-10-06 05:03:00,
2013-10-05 23:05:00,38.0,33.9,30.17,WSW,252,0.0,0.0,85,0.00,,,0.00,VWS V14.01,2013-10-06 05:05:00,
2013-10-05 23:08:00,35.2,31.4,30.17,NE,41,0.0,0.0,86,0.00,,,0.00,VWS V14.01,2013-10-06 05:08:00,
2013-10-05 23:10:00,37.8,34.3,30.17,WSW,252,0.0,0.0,87,0.00,,,0.00,VWS V14.01,2013-10-06 05:10:00,
2013-10-05 23:13:00,35.0,31.8,30.17,NE,41,0.0,0.0,88,0.00,,,0.00,VWS V14.01,2013-10-06 05:13:00,
2013-10-05 23:15:00,38.3,35.1,30.17,WSW,252,0.0,0.0,88,0.00,,,0.00,VWS V14.01,2013-10-06 05:15:00,
2013-10-05 23:18:00,35.2,32.3,30.17,NE,41,0.0,0.0,89,0.00,,,0.00,VWS V14.01,2013-10-06 05:18:00,
2013-10-05 23:20:00,37.9,34.1,30.18,WSW,252,0.0,0.0,86,0.00,,,0.00,VWS V14.01,2013-10-06 05:20:00,
2013-10-05 23:23:00,35.5,32.9,30.17,ENE,60,1.0,2.0,90,0.00,,,0.00,VWS V14.01,2013-10-06 05:23:00,
2013-10-05 23:25:00,37.2,33.4,30.18,ESE,109,0.0,0.0,86,0.00,,,0.00,VWS V14.01,2013-10-06 05:25:00,
2013-10-05 23:28:00,35.7,32.8,30.17,ENE,60,1.0,1.0,89,0.00,,,0.00,VWS V14.01,2013-10-06 05:28:00,
2013-10-05 23:30:00,36.8,33.0,30.18,SE,146,2.0,3.0,86,0.00,,,0.00,VWS V14.01,2013-10-06 05:30:00,
2013-10-05 23:33:00,35.5,32.6,30.17,ESE,120,0.0,1.0,89,0.00,,,0.00,VWS V14.01,2013-10-06 05:33:00,
2013-10-05 23:35:00,36.2,31.8,30.17,ESE,120,1.0,2.0,84,0.00,,,0.00,VWS V14.01,2013-10-06 05:35:00,
2013-10-05 23:38:00,34.9,32.0,30.17,ESE,120,0.0,1.0,89,0.00,,,0.00,VWS V14.01,2013-10-06 05:38:00,
2013-10-05 23:40:00,35.7,31.6,30.17,East,82,1.0,2.0,85,0.00,,,0.00,VWS V14.01,2013-10-06 05:40:00,
2013-10-05 23:43:00,34.3,31.1,30.17,ESE,122,1.0,1.0,88,0.00,,,0.00,VWS V14.01,2013-10-06 05:43:00,
2013-10-05 23:45:00,35.9,32.4,30.18,East,82,1.0,1.0,87,0.00,,,0.00,VWS V14.01,2013-10-06 05:45:00,
2013-10-05 23:48:00,33.7,31.1,30.17,ESE,122,1.0,1.0,90,0.00,,,0.00,VWS V14.01,2013-10-06 05:48:00,
2013-10-05 23:50:00,36.3,32.8,30.18,East,82,1.0,1.0,87,0.00,,,0.00,VWS V14.01,2013-10-06 05:50:00,
2013-10-05 23:53:00,33.7,31.4,30.17,ESE,122,0.0,1.0,91,0.00,,,0.00,VWS V14.01,2013-10-06 05:53:00,
2013-10-05 23:55:00,36.5,32.7,30.17,East,98,0.0,1.0,86,0.00,,,0.00,VWS V14.01,2013-10-06 05:55:00,
2013-10-05 23:58:00,33.8,31.5,30.17,ESE,122,1.0,2.0,91,0.00,,,0.00,VWS V14.01,2013-10-06 05:58:00,